sensor_id;sensor_type;location;lat;lon;timestamp;pressure;altitude;pressure_sealevel;temperature;humidity
18987;BME280;9627;59.236;18.142;2023-03-04T00:02:07;99826.41;;;-0.44;100.00
18987;BME280;9627;59.236;18.142;2023-03-04T00:04:34;99842.06;;;-0.35;100.00
18987;BME280;9627;59.236;18.142;2023-03-04T00:07:01;99851.13;;;-0.39;100.00
18987;BME280;9627;59.236;18.142;2023-03-04T00:09:28;99839.03;;;-0.40;100.00
18987;BME280;9627;59.236;18.142;2023-03-04T00:11:55;99843.16;;;-0.47;100.00
18987;BME280;9627;59.236;18.142;2023-03-04T00:14:22;99841.63;;;-0.49;100.00
18987;BME280;9627;59.236;18.142;2023-03-04T00:16:48;99839.72;;;-0.47;100.00
18987;BME280;9627;59.236;18.142;2023-03-04T00:19:17;99834.66;;;-0.39;100.00
18987;BME280;9627;59.236;18.142;2023-03-04T00:21:44;99840.94;;;-0.42;100.00
18987;BME280;9627;59.236;18.142;2023-03-04T00:24:11;99847.38;;;-0.46;100.00
18987;BME280;9627;59.236;18.142;2023-03-04T00:26:38;99846.72;;;-0.57;100.00
18987;BME280;9627;59.236;18.142;2023-03-04T00:29:05;99845.59;;;-0.64;100.00
18987;BME280;9627;59.236;18.142;2023-03-04T00:31:32;99846.28;;;-0.62;100.00
18987;BME280;9627;59.236;18.142;2023-03-04T00:33:59;99841.88;;;-0.71;100.00
18987;BME280;9627;59.236;18.142;2023-03-04T00:36:27;99830.09;;;-0.66;100.00
18987;BME280;9627;59.236;18.142;2023-03-04T00:38:54;99831.31;;;-0.70;100.00
18987;BME280;9627;59.236;18.142;2023-03-04T00:41:21;99829.53;;;-0.69;100.00
18987;BME280;9627;59.236;18.142;2023-03-04T00:43:48;99829.94;;;-0.74;100.00
18987;BME280;9627;59.236;18.142;2023-03-04T00:46:15;99820.06;;;-0.70;100.00
18987;BME280;9627;59.236;18.142;2023-03-04T00:48:42;99821.19;;;-0.63;100.00
18987;BME280;9627;59.236;18.142;2023-03-04T00:51:09;99830.75;;;-0.73;100.00
18987;BME280;9627;59.236;18.142;2023-03-04T00:53:38;99834.19;;;-0.73;100.00
18987;BME280;9627;59.236;18.142;2023-03-04T00:56:05;99826.63;;;-0.76;100.00
18987;BME280;9627;59.236;18.142;2023-03-04T00:58:32;99837.22;;;-0.68;100.00
18987;BME280;9627;59.236;18.142;2023-03-04T01:00:59;99825.16;;;-0.69;100.00
18987;BME280;9627;59.236;18.142;2023-03-04T01:03:26;99828.28;;;-0.75;100.00
18987;BME280;9627;59.236;18.142;2023-03-04T01:05:55;99831.97;;;-0.77;100.00
18987;BME280;9627;59.236;18.142;2023-03-04T01:08:22;99838.00;;;-0.86;100.00
18987;BME280;9627;59.236;18.142;2023-03-04T01:10:51;99820.69;;;-0.87;100.00
18987;BME280;9627;59.236;18.142;2023-03-04T01:13:18;99830.84;;;-0.94;100.00
18987;BME280;9627;59.236;18.142;2023-03-04T01:15:45;99827.16;;;-0.82;100.00
18987;BME280;9627;59.236;18.142;2023-03-04T01:18:12;99832.47;;;-0.93;100.00
18987;BME280;9627;59.236;18.142;2023-03-04T01:20:39;99829.84;;;-1.03;100.00
18987;BME280;9627;59.236;18.142;2023-03-04T01:23:05;99821.63;;;-1.08;100.00
18987;BME280;9627;59.236;18.142;2023-03-04T01:25:32;99834.81;;;-1.00;100.00
18987;BME280;9627;59.236;18.142;2023-03-04T01:28:01;99838.31;;;-1.10;100.00
18987;BME280;9627;59.236;18.142;2023-03-04T01:30:28;99817.47;;;-1.10;100.00
18987;BME280;9627;59.236;18.142;2023-03-04T01:32:55;99829.84;;;-1.03;100.00
18987;BME280;9627;59.236;18.142;2023-03-04T01:35:22;99839.56;;;-1.05;100.00
18987;BME280;9627;59.236;18.142;2023-03-04T01:37:49;99839.00;;;-1.08;100.00
18987;BME280;9627;59.236;18.142;2023-03-04T01:40:16;99831.19;;;-1.08;100.00
18987;BME280;9627;59.236;18.142;2023-03-04T01:42:43;99823.63;;;-1.21;100.00
18987;BME280;9627;59.236;18.142;2023-03-04T01:45:14;99837.06;;;-1.16;100.00
18987;BME280;9627;59.236;18.142;2023-03-04T01:47:43;99829.00;;;-1.13;100.00
18987;BME280;9627;59.236;18.142;2023-03-04T01:50:16;99838.72;;;-1.15;100.00
18987;BME280;9627;59.236;18.142;2023-03-04T01:52:43;99830.91;;;-1.15;100.00
18987;BME280;9627;59.236;18.142;2023-03-04T01:55:13;99834.97;;;-1.22;100.00
18987;BME280;9627;59.236;18.142;2023-03-04T01:57:43;99829.78;;;-1.22;100.00
18987;BME280;9627;59.236;18.142;2023-03-04T02:02:59;99820.16;;;-1.31;100.00
18987;BME280;9627;59.236;18.142;2023-03-04T02:05:27;99831.63;;;-1.33;100.00
18987;BME280;9627;59.236;18.142;2023-03-04T02:07:54;99826.00;;;-1.38;100.00
18987;BME280;9627;59.236;18.142;2023-03-04T02:10:21;99813.13;;;-1.40;100.00
18987;BME280;9627;59.236;18.142;2023-03-04T02:12:48;99810.78;;;-1.43;100.00
18987;BME280;9627;59.236;18.142;2023-03-04T02:15:16;99809.50;;;-1.48;100.00
18987;BME280;9627;59.236;18.142;2023-03-04T02:17:43;99809.78;;;-1.51;100.00
18987;BME280;9627;59.236;18.142;2023-03-04T02:20:14;99812.63;;;-1.54;100.00
18987;BME280;9627;59.236;18.142;2023-03-04T02:22:46;99822.66;;;-1.50;100.00
18987;BME280;9627;59.236;18.142;2023-03-04T02:25:16;99806.22;;;-1.50;100.00
18987;BME280;9627;59.236;18.142;2023-03-04T02:27:46;99799.19;;;-1.59;100.00
18987;BME280;9627;59.236;18.142;2023-03-04T02:30:18;99821.34;;;-1.65;100.00
18987;BME280;9627;59.236;18.142;2023-03-04T02:32:45;99810.44;;;-1.59;100.00
18987;BME280;9627;59.236;18.142;2023-03-04T02:35:13;99798.94;;;-1.56;100.00
18987;BME280;9627;59.236;18.142;2023-03-04T02:37:42;99802.34;;;-1.56;100.00
18987;BME280;9627;59.236;18.142;2023-03-04T02:40:10;99805.22;;;-1.59;100.00
18987;BME280;9627;59.236;18.142;2023-03-04T02:42:41;99803.28;;;-1.66;100.00
18987;BME280;9627;59.236;18.142;2023-03-04T02:47:52;99810.06;;;-1.75;100.00
18987;BME280;9627;59.236;18.142;2023-03-04T02:50:19;99810.88;;;-1.74;100.00
18987;BME280;9627;59.236;18.142;2023-03-04T02:52:46;99810.47;;;-1.79;100.00
18987;BME280;9627;59.236;18.142;2023-03-04T02:55:13;99818.97;;;-1.77;100.00
18987;BME280;9627;59.236;18.142;2023-03-04T02:57:40;99829.88;;;-1.83;100.00
18987;BME280;9627;59.236;18.142;2023-03-04T03:00:07;99818.28;;;-1.79;100.00
18987;BME280;9627;59.236;18.142;2023-03-04T03:02:35;99785.13;;;-1.77;100.00
18987;BME280;9627;59.236;18.142;2023-03-04T03:05:04;99809.25;;;-1.75;100.00
18987;BME280;9627;59.236;18.142;2023-03-04T03:07:31;99800.22;;;-1.71;100.00
18987;BME280;9627;59.236;18.142;2023-03-04T03:09:59;99807.31;;;-1.73;100.00
18987;BME280;9627;59.236;18.142;2023-03-04T03:12:26;99825.38;;;-1.81;100.00
18987;BME280;9627;59.236;18.142;2023-03-04T03:14:53;99789.31;;;-1.86;100.00
18987;BME280;9627;59.236;18.142;2023-03-04T03:17:19;99809.63;;;-1.80;100.00
18987;BME280;9627;59.236;18.142;2023-03-04T03:19:46;99797.19;;;-1.76;100.00
18987;BME280;9627;59.236;18.142;2023-03-04T03:22:15;99806.31;;;-1.82;100.00
18987;BME280;9627;59.236;18.142;2023-03-04T03:24:42;99816.72;;;-1.82;100.00
18987;BME280;9627;59.236;18.142;2023-03-04T03:27:09;99808.09;;;-1.82;100.00
18987;BME280;9627;59.236;18.142;2023-03-04T03:29:36;99807.91;;;-1.91;100.00
18987;BME280;9627;59.236;18.142;2023-03-04T03:32:03;99796.13;;;-1.95;100.00
18987;BME280;9627;59.236;18.142;2023-03-04T03:34:30;99801.00;;;-2.01;100.00
18987;BME280;9627;59.236;18.142;2023-03-04T03:36:57;99808.47;;;-2.08;100.00
18987;BME280;9627;59.236;18.142;2023-03-04T03:39:26;99811.47;;;-2.12;100.00
18987;BME280;9627;59.236;18.142;2023-03-04T03:41:53;99799.53;;;-2.15;100.00
18987;BME280;9627;59.236;18.142;2023-03-04T03:44:20;99803.34;;;-2.19;100.00
18987;BME280;9627;59.236;18.142;2023-03-04T03:46:47;99801.44;;;-2.17;100.00
18987;BME280;9627;59.236;18.142;2023-03-04T03:49:14;99814.44;;;-2.17;100.00
18987;BME280;9627;59.236;18.142;2023-03-04T03:51:41;99814.34;;;-2.26;100.00
18987;BME280;9627;59.236;18.142;2023-03-04T03:54:08;99816.97;;;-2.26;100.00
18987;BME280;9627;59.236;18.142;2023-03-04T03:56:37;99818.63;;;-2.25;100.00
18987;BME280;9627;59.236;18.142;2023-03-04T03:59:04;99819.59;;;-2.37;100.00
18987;BME280;9627;59.236;18.142;2023-03-04T04:01:33;99810.16;;;-2.38;100.00
18987;BME280;9627;59.236;18.142;2023-03-04T04:04:00;99800.94;;;-2.31;100.00
18987;BME280;9627;59.236;18.142;2023-03-04T04:06:27;99794.19;;;-2.34;100.00
18987;BME280;9627;59.236;18.142;2023-03-04T04:08:54;99804.59;;;-2.34;100.00
18987;BME280;9627;59.236;18.142;2023-03-04T04:11:21;99825.50;;;-2.35;100.00
18987;BME280;9627;59.236;18.142;2023-03-04T04:13:50;99795.38;;;-2.38;100.00
18987;BME280;9627;59.236;18.142;2023-03-04T04:16:16;99811.47;;;-2.44;100.00
18987;BME280;9627;59.236;18.142;2023-03-04T04:18:43;99793.31;;;-2.55;100.00
18987;BME280;9627;59.236;18.142;2023-03-04T04:21:10;99808.34;;;-2.58;100.00
18987;BME280;9627;59.236;18.142;2023-03-04T04:23:37;99812.72;;;-2.59;100.00
18987;BME280;9627;59.236;18.142;2023-03-04T04:26:04;99822.91;;;-2.67;100.00
18987;BME280;9627;59.236;18.142;2023-03-04T04:28:31;99814.41;;;-2.69;100.00
18987;BME280;9627;59.236;18.142;2023-03-04T04:31:00;99825.03;;;-2.72;100.00
18987;BME280;9627;59.236;18.142;2023-03-04T04:33:27;99816.66;;;-2.75;100.00
18987;BME280;9627;59.236;18.142;2023-03-04T04:35:54;99820.56;;;-2.81;100.00
18987;BME280;9627;59.236;18.142;2023-03-04T04:38:20;99823.66;;;-2.87;100.00
18987;BME280;9627;59.236;18.142;2023-03-04T04:40:48;99832.16;;;-2.85;100.00
18987;BME280;9627;59.236;18.142;2023-03-04T04:43:15;99815.41;;;-2.92;100.00
18987;BME280;9627;59.236;18.142;2023-03-04T04:45:42;99836.53;;;-2.97;100.00
18987;BME280;9627;59.236;18.142;2023-03-04T04:48:11;99832.16;;;-2.96;100.00
18987;BME280;9627;59.236;18.142;2023-03-04T04:50:38;99840.19;;;-2.99;100.00
18987;BME280;9627;59.236;18.142;2023-03-04T04:53:05;99836.28;;;-3.05;100.00
18987;BME280;9627;59.236;18.142;2023-03-04T04:55:32;99841.97;;;-3.11;100.00
18987;BME280;9627;59.236;18.142;2023-03-04T04:57:59;99842.22;;;-3.14;100.00
18987;BME280;9627;59.236;18.142;2023-03-04T05:00:26;99862.16;;;-3.14;100.00
18987;BME280;9627;59.236;18.142;2023-03-04T05:02:53;99852.34;;;-3.11;100.00
18987;BME280;9627;59.236;18.142;2023-03-04T05:05:22;99831.34;;;-3.08;100.00
18987;BME280;9627;59.236;18.142;2023-03-04T05:07:49;99858.75;;;-3.15;100.00
18987;BME280;9627;59.236;18.142;2023-03-04T05:10:15;99843.88;;;-3.13;100.00
18987;BME280;9627;59.236;18.142;2023-03-04T05:12:42;99857.53;;;-3.11;100.00
18987;BME280;9627;59.236;18.142;2023-03-04T05:15:09;99841.97;;;-3.22;100.00
18987;BME280;9627;59.236;18.142;2023-03-04T05:17:36;99860.97;;;-3.21;100.00
18987;BME280;9627;59.236;18.142;2023-03-04T05:20:04;99867.47;;;-3.27;100.00
18987;BME280;9627;59.236;18.142;2023-03-04T05:22:32;99861.44;;;-3.27;100.00
18987;BME280;9627;59.236;18.142;2023-03-04T05:24:59;99873.25;;;-3.34;100.00
18987;BME280;9627;59.236;18.142;2023-03-04T05:27:26;99862.41;;;-3.28;100.00
18987;BME280;9627;59.236;18.142;2023-03-04T05:29:53;99874.28;;;-3.26;100.00
18987;BME280;9627;59.236;18.142;2023-03-04T05:32:20;99864.63;;;-3.24;100.00
18987;BME280;9627;59.236;18.142;2023-03-04T05:34:47;99857.53;;;-3.22;100.00
18987;BME280;9627;59.236;18.142;2023-03-04T05:37:14;99874.06;;;-3.23;100.00
18987;BME280;9627;59.236;18.142;2023-03-04T05:39:43;99864.88;;;-3.27;100.00
18987;BME280;9627;59.236;18.142;2023-03-04T05:42:10;99885.03;;;-3.30;100.00
18987;BME280;9627;59.236;18.142;2023-03-04T05:44:36;99874.53;;;-3.40;100.00
18987;BME280;9627;59.236;18.142;2023-03-04T05:47:03;99875.59;;;-3.31;100.00
18987;BME280;9627;59.236;18.142;2023-03-04T05:49:30;99872.19;;;-3.32;100.00
18987;BME280;9627;59.236;18.142;2023-03-04T05:51:57;99875.38;;;-3.28;100.00
18987;BME280;9627;59.236;18.142;2023-03-04T05:54:24;99884.09;;;-3.29;100.00
18987;BME280;9627;59.236;18.142;2023-03-04T05:56:53;99887.97;;;-3.24;100.00
18987;BME280;9627;59.236;18.142;2023-03-04T05:59:20;99900.63;;;-3.19;100.00
18987;BME280;9627;59.236;18.142;2023-03-04T06:01:47;99902.28;;;-3.07;100.00
18987;BME280;9627;59.236;18.142;2023-03-04T06:04:14;99901.22;;;-2.83;100.00
18987;BME280;9627;59.236;18.142;2023-03-04T06:06:41;99914.50;;;-2.43;100.00
18987;BME280;9627;59.236;18.142;2023-03-04T06:09:10;99901.69;;;-1.92;100.00
18987;BME280;9627;59.236;18.142;2023-03-04T06:11:37;99909.63;;;-1.52;100.00
18987;BME280;9627;59.236;18.142;2023-03-04T06:14:06;99897.53;;;-1.12;100.00
18987;BME280;9627;59.236;18.142;2023-03-04T06:16:33;99902.78;;;-1.03;96.08
18987;BME280;9627;59.236;18.142;2023-03-04T06:19:00;99909.66;;;-1.02;96.04
18987;BME280;9627;59.236;18.142;2023-03-04T06:21:27;99919.22;;;-0.72;97.99
18987;BME280;9627;59.236;18.142;2023-03-04T06:23:54;99921.78;;;-0.42;93.85
18987;BME280;9627;59.236;18.142;2023-03-04T06:26:21;99923.81;;;-0.55;91.29
18987;BME280;9627;59.236;18.142;2023-03-04T06:28:48;99918.66;;;-0.75;92.46
18987;BME280;9627;59.236;18.142;2023-03-04T06:31:16;99905.38;;;-1.03;91.12
18987;BME280;9627;59.236;18.142;2023-03-04T06:33:43;99926.31;;;-0.83;100.00
18987;BME280;9627;59.236;18.142;2023-03-04T06:36:10;99921.16;;;-1.04;96.92
18987;BME280;9627;59.236;18.142;2023-03-04T06:38:37;99939.50;;;-1.56;100.00
18987;BME280;9627;59.236;18.142;2023-03-04T06:41:07;99947.47;;;-1.48;100.00
18987;BME280;9627;59.236;18.142;2023-03-04T06:43:34;99945.03;;;-0.99;100.00
18987;BME280;9627;59.236;18.142;2023-03-04T06:46:01;99941.63;;;-1.41;100.00
18987;BME280;9627;59.236;18.142;2023-03-04T06:48:30;99938.00;;;-0.78;100.00
18987;BME280;9627;59.236;18.142;2023-03-04T06:50:57;99937.25;;;0.28;96.02
18987;BME280;9627;59.236;18.142;2023-03-04T06:53:24;99945.59;;;-0.07;89.72
18987;BME280;9627;59.236;18.142;2023-03-04T06:55:51;99946.78;;;-0.79;96.82
18987;BME280;9627;59.236;18.142;2023-03-04T06:58:18;99949.34;;;-1.39;100.00
18987;BME280;9627;59.236;18.142;2023-03-04T07:00:45;99959.78;;;-1.50;100.00
18987;BME280;9627;59.236;18.142;2023-03-04T07:03:12;99953.31;;;-1.35;100.00
18987;BME280;9627;59.236;18.142;2023-03-04T07:05:40;99960.75;;;-1.31;100.00
18987;BME280;9627;59.236;18.142;2023-03-04T07:08:07;99953.38;;;-1.26;100.00
18987;BME280;9627;59.236;18.142;2023-03-04T07:10:34;99964.38;;;-1.22;100.00
18987;BME280;9627;59.236;18.142;2023-03-04T07:13:01;99967.44;;;-1.38;100.00
18987;BME280;9627;59.236;18.142;2023-03-04T07:15:29;99958.72;;;-1.48;100.00
18987;BME280;9627;59.236;18.142;2023-03-04T07:17:56;99955.13;;;-1.56;100.00
18987;BME280;9627;59.236;18.142;2023-03-04T07:20:23;99952.88;;;-1.61;100.00
18987;BME280;9627;59.236;18.142;2023-03-04T07:22:51;99969.31;;;-1.60;100.00
18987;BME280;9627;59.236;18.142;2023-03-04T07:25:18;99958.59;;;-0.75;100.00
18987;BME280;9627;59.236;18.142;2023-03-04T07:27:45;99955.94;;;0.43;100.00
18987;BME280;9627;59.236;18.142;2023-03-04T07:30:12;99942.81;;;0.90;100.00
18987;BME280;9627;59.236;18.142;2023-03-04T07:32:40;99955.53;;;1.49;91.28
18987;BME280;9627;59.236;18.142;2023-03-04T07:35:07;99970.69;;;2.35;96.20
18987;BME280;9627;59.236;18.142;2023-03-04T07:37:34;99956.50;;;2.81;85.82
18987;BME280;9627;59.236;18.142;2023-03-04T07:40:03;99962.31;;;2.49;80.99
18987;BME280;9627;59.236;18.142;2023-03-04T07:42:32;99974.94;;;2.71;86.15
18987;BME280;9627;59.236;18.142;2023-03-04T07:44:59;99970.41;;;2.99;87.12
18987;BME280;9627;59.236;18.142;2023-03-04T07:47:27;99979.38;;;2.97;82.82
18987;BME280;9627;59.236;18.142;2023-03-04T07:49:54;99977.47;;;3.32;80.68
18987;BME280;9627;59.236;18.142;2023-03-04T07:52:21;99962.88;;;3.04;78.11
18987;BME280;9627;59.236;18.142;2023-03-04T07:54:48;99965.22;;;2.64;75.70
18987;BME280;9627;59.236;18.142;2023-03-04T07:57:17;99971.66;;;2.52;79.08
18987;BME280;9627;59.236;18.142;2023-03-04T07:59:44;99968.78;;;3.06;80.11
18987;BME280;9627;59.236;18.142;2023-03-04T08:02:10;99963.81;;;2.95;75.27
18987;BME280;9627;59.236;18.142;2023-03-04T08:04:37;99971.81;;;2.33;76.83
18987;BME280;9627;59.236;18.142;2023-03-04T08:07:04;99966.69;;;2.84;79.43
18987;BME280;9627;59.236;18.142;2023-03-04T08:09:31;99964.47;;;2.54;78.55
18987;BME280;9627;59.236;18.142;2023-03-04T08:11:58;99976.16;;;2.42;83.12
18987;BME280;9627;59.236;18.142;2023-03-04T08:14:27;99963.91;;;1.80;81.85
18987;BME280;9627;59.236;18.142;2023-03-04T08:16:54;99970.63;;;1.19;81.70
18987;BME280;9627;59.236;18.142;2023-03-04T08:19:21;99977.13;;;1.51;86.72
18987;BME280;9627;59.236;18.142;2023-03-04T08:21:48;99964.88;;;1.52;91.42
18987;BME280;9627;59.236;18.142;2023-03-04T08:24:15;99972.94;;;1.58;82.80
18987;BME280;9627;59.236;18.142;2023-03-04T08:26:43;99974.38;;;1.80;82.24
18987;BME280;9627;59.236;18.142;2023-03-04T08:29:12;99967.41;;;1.71;81.21
18987;BME280;9627;59.236;18.142;2023-03-04T08:31:41;99983.25;;;1.69;83.74
18987;BME280;9627;59.236;18.142;2023-03-04T08:34:10;99979.66;;;2.33;85.25
18987;BME280;9627;59.236;18.142;2023-03-04T08:36:38;100001.41;;;2.16;84.33
18987;BME280;9627;59.236;18.142;2023-03-04T08:39:06;99984.84;;;1.80;79.99
18987;BME280;9627;59.236;18.142;2023-03-04T08:41:34;99989.69;;;2.20;82.36
18987;BME280;9627;59.236;18.142;2023-03-04T08:44:01;99992.56;;;1.99;79.95
18987;BME280;9627;59.236;18.142;2023-03-04T08:46:28;99996.19;;;1.71;79.13
18987;BME280;9627;59.236;18.142;2023-03-04T08:48:57;99989.09;;;2.26;81.39
18987;BME280;9627;59.236;18.142;2023-03-04T08:51:24;99991.16;;;1.60;78.34
18987;BME280;9627;59.236;18.142;2023-03-04T08:53:51;100000.53;;;1.80;81.29
18987;BME280;9627;59.236;18.142;2023-03-04T08:56:18;100007.06;;;2.38;83.42
18987;BME280;9627;59.236;18.142;2023-03-04T08:58:45;100005.78;;;2.25;79.43
18987;BME280;9627;59.236;18.142;2023-03-04T09:01:12;100007.13;;;1.57;80.90
18987;BME280;9627;59.236;18.142;2023-03-04T09:03:39;100014.78;;;1.31;86.86
18987;BME280;9627;59.236;18.142;2023-03-04T09:06:08;100019.97;;;1.50;84.80
18987;BME280;9627;59.236;18.142;2023-03-04T09:08:37;100014.31;;;1.45;83.29
18987;BME280;9627;59.236;18.142;2023-03-04T09:11:04;100006.56;;;1.07;85.52
18987;BME280;9627;59.236;18.142;2023-03-04T09:13:31;100021.06;;;0.73;92.35
18987;BME280;9627;59.236;18.142;2023-03-04T09:15:59;100020.94;;;0.65;98.19
18987;BME280;9627;59.236;18.142;2023-03-04T09:18:26;99996.75;;;0.63;99.81
18987;BME280;9627;59.236;18.142;2023-03-04T09:20:53;100031.81;;;0.70;100.00
18987;BME280;9627;59.236;18.142;2023-03-04T09:23:22;100033.72;;;0.77;100.00
18987;BME280;9627;59.236;18.142;2023-03-04T09:25:49;100020.38;;;0.52;100.00
18987;BME280;9627;59.236;18.142;2023-03-04T09:28:16;100028.75;;;0.74;100.00
18987;BME280;9627;59.236;18.142;2023-03-04T09:30:43;100022.72;;;0.93;100.00
18987;BME280;9627;59.236;18.142;2023-03-04T09:33:10;100036.31;;;0.97;100.00
18987;BME280;9627;59.236;18.142;2023-03-04T09:35:37;100015.88;;;1.38;100.00
18987;BME280;9627;59.236;18.142;2023-03-04T09:38:04;100018.44;;;1.84;100.00
18987;BME280;9627;59.236;18.142;2023-03-04T09:40:36;100031.50;;;2.29;98.05
18987;BME280;9627;59.236;18.142;2023-03-04T09:43:05;100025.09;;;2.76;97.68
18987;BME280;9627;59.236;18.142;2023-03-04T09:45:37;100026.56;;;2.09;95.87
18987;BME280;9627;59.236;18.142;2023-03-04T09:48:08;100038.41;;;2.30;98.46
18987;BME280;9627;59.236;18.142;2023-03-04T09:50:37;100028.00;;;2.56;93.93
18987;BME280;9627;59.236;18.142;2023-03-04T09:53:11;100024.88;;;2.70;93.71
18987;BME280;9627;59.236;18.142;2023-03-04T09:55:47;100033.94;;;3.19;93.37
18987;BME280;9627;59.236;18.142;2023-03-04T09:58:17;100029.25;;;3.30;87.34
18987;BME280;9627;59.236;18.142;2023-03-04T10:00:51;100021.69;;;3.53;84.21
18987;BME280;9627;59.236;18.142;2023-03-04T10:03:21;100013.69;;;3.62;84.31
18987;BME280;9627;59.236;18.142;2023-03-04T10:05:52;100023.56;;;3.68;81.95
18987;BME280;9627;59.236;18.142;2023-03-04T10:08:25;100013.13;;;3.43;84.36
18987;BME280;9627;59.236;18.142;2023-03-04T10:10:55;100010.25;;;3.03;85.06
18987;BME280;9627;59.236;18.142;2023-03-04T10:13:27;100028.84;;;2.92;86.57
18987;BME280;9627;59.236;18.142;2023-03-04T10:15:56;100041.47;;;3.39;88.17
18987;BME280;9627;59.236;18.142;2023-03-04T10:18:26;100041.25;;;3.33;89.78
18987;BME280;9627;59.236;18.142;2023-03-04T10:20:57;100025.34;;;3.34;86.04
18987;BME280;9627;59.236;18.142;2023-03-04T10:23:27;100015.16;;;3.57;88.49
18987;BME280;9627;59.236;18.142;2023-03-04T10:25:56;100025.19;;;4.03;90.15
18987;BME280;9627;59.236;18.142;2023-03-04T10:28:25;100032.56;;;4.00;86.94
18987;BME280;9627;59.236;18.142;2023-03-04T10:30:54;100030.22;;;3.55;88.94
18987;BME280;9627;59.236;18.142;2023-03-04T10:33:24;100030.66;;;4.10;88.68
18987;BME280;9627;59.236;18.142;2023-03-04T10:35:52;100020.16;;;4.26;89.47
18987;BME280;9627;59.236;18.142;2023-03-04T10:38:21;100032.84;;;4.30;86.72
18987;BME280;9627;59.236;18.142;2023-03-04T10:40:48;100035.97;;;4.34;88.21
18987;BME280;9627;59.236;18.142;2023-03-04T10:43:18;100038.78;;;4.40;91.43
18987;BME280;9627;59.236;18.142;2023-03-04T10:45:46;100034.88;;;4.03;89.43
18987;BME280;9627;59.236;18.142;2023-03-04T10:48:23;100035.69;;;4.03;91.10
18987;BME280;9627;59.236;18.142;2023-03-04T10:50:50;100034.81;;;3.87;94.85
18987;BME280;9627;59.236;18.142;2023-03-04T10:53:24;100034.56;;;4.06;97.30
18987;BME280;9627;59.236;18.142;2023-03-04T10:55:54;100040.06;;;4.28;96.97
18987;BME280;9627;59.236;18.142;2023-03-04T10:58:22;100036.63;;;4.36;95.88
18987;BME280;9627;59.236;18.142;2023-03-04T11:00:57;100018.25;;;4.60;96.03
18987;BME280;9627;59.236;18.142;2023-03-04T11:03:28;100035.91;;;4.10;96.82
18987;BME280;9627;59.236;18.142;2023-03-04T11:06:05;100022.75;;;4.18;93.69
18987;BME280;9627;59.236;18.142;2023-03-04T11:08:32;100034.66;;;4.38;96.50
18987;BME280;9627;59.236;18.142;2023-03-04T11:10:59;100039.94;;;3.96;92.80
18987;BME280;9627;59.236;18.142;2023-03-04T11:13:28;100036.66;;;3.60;100.00
18987;BME280;9627;59.236;18.142;2023-03-04T11:15:57;100038.84;;;3.39;100.00
18987;BME280;9627;59.236;18.142;2023-03-04T11:18:27;100044.28;;;3.46;100.00
18987;BME280;9627;59.236;18.142;2023-03-04T11:20:57;100031.72;;;3.32;100.00
18987;BME280;9627;59.236;18.142;2023-03-04T11:23:28;100048.47;;;2.70;100.00
18987;BME280;9627;59.236;18.142;2023-03-04T11:25:58;100042.38;;;2.52;100.00
18987;BME280;9627;59.236;18.142;2023-03-04T11:28:30;100042.84;;;2.82;100.00
18987;BME280;9627;59.236;18.142;2023-03-04T11:31:03;100044.72;;;3.33;100.00
18987;BME280;9627;59.236;18.142;2023-03-04T11:33:32;100037.50;;;3.95;100.00
18987;BME280;9627;59.236;18.142;2023-03-04T11:36:05;100030.66;;;4.10;100.00
18987;BME280;9627;59.236;18.142;2023-03-04T11:38:35;100021.03;;;4.34;100.00
18987;BME280;9627;59.236;18.142;2023-03-04T11:41:07;100020.91;;;3.94;100.00
18987;BME280;9627;59.236;18.142;2023-03-04T11:43:38;100026.19;;;3.68;100.00
18987;BME280;9627;59.236;18.142;2023-03-04T11:46:10;100020.44;;;4.07;100.00
18987;BME280;9627;59.236;18.142;2023-03-04T11:48:44;100019.28;;;4.01;100.00
18987;BME280;9627;59.236;18.142;2023-03-04T11:51:16;100015.03;;;4.00;100.00
18987;BME280;9627;59.236;18.142;2023-03-04T11:53:51;100014.75;;;3.77;100.00
18987;BME280;9627;59.236;18.142;2023-03-04T11:56:26;100031.00;;;4.23;100.00
18987;BME280;9627;59.236;18.142;2023-03-04T12:01:40;100031.09;;;3.63;100.00
18987;BME280;9627;59.236;18.142;2023-03-04T12:06:57;100024.84;;;3.64;100.00
18987;BME280;9627;59.236;18.142;2023-03-04T12:09:31;100034.66;;;3.88;100.00
18987;BME280;9627;59.236;18.142;2023-03-04T12:12:05;100035.53;;;3.63;100.00
18987;BME280;9627;59.236;18.142;2023-03-04T12:14:33;100034.63;;;3.46;100.00
18987;BME280;9627;59.236;18.142;2023-03-04T12:17:10;100039.81;;;3.38;100.00
18987;BME280;9627;59.236;18.142;2023-03-04T12:19:45;100027.09;;;3.00;100.00
18987;BME280;9627;59.236;18.142;2023-03-04T12:22:24;100035.84;;;3.09;100.00
18987;BME280;9627;59.236;18.142;2023-03-04T12:25:02;100029.28;;;2.87;100.00
18987;BME280;9627;59.236;18.142;2023-03-04T12:27:36;100030.19;;;2.78;100.00
18987;BME280;9627;59.236;18.142;2023-03-04T12:30:06;100030.59;;;3.09;100.00
18987;BME280;9627;59.236;18.142;2023-03-04T12:32:44;100032.88;;;2.86;100.00
18987;BME280;9627;59.236;18.142;2023-03-04T12:35:22;100041.56;;;2.69;100.00
18987;BME280;9627;59.236;18.142;2023-03-04T12:38:02;100039.09;;;2.67;100.00
18987;BME280;9627;59.236;18.142;2023-03-04T12:40:35;100041.88;;;2.66;100.00
18987;BME280;9627;59.236;18.142;2023-03-04T12:43:10;100039.75;;;2.52;100.00
18987;BME280;9627;59.236;18.142;2023-03-04T12:45:43;100045.09;;;2.60;100.00
18987;BME280;9627;59.236;18.142;2023-03-04T12:48:17;100048.91;;;2.48;100.00
18987;BME280;9627;59.236;18.142;2023-03-04T12:50:50;100045.13;;;2.33;100.00
18987;BME280;9627;59.236;18.142;2023-03-04T12:53:20;100044.91;;;2.26;100.00
18987;BME280;9627;59.236;18.142;2023-03-04T12:55:54;100043.88;;;2.19;100.00
18987;BME280;9627;59.236;18.142;2023-03-04T12:58:23;100042.31;;;2.26;100.00
18987;BME280;9627;59.236;18.142;2023-03-04T13:00:52;100042.00;;;2.47;100.00
18987;BME280;9627;59.236;18.142;2023-03-04T13:03:24;100037.91;;;2.27;100.00
18987;BME280;9627;59.236;18.142;2023-03-04T13:05:55;100052.72;;;2.36;100.00
18987;BME280;9627;59.236;18.142;2023-03-04T13:08:27;100042.81;;;2.30;100.00
18987;BME280;9627;59.236;18.142;2023-03-04T13:10:59;100034.88;;;2.22;100.00
18987;BME280;9627;59.236;18.142;2023-03-04T13:13:33;100042.22;;;2.18;100.00